createdAt,value
2019-01-17T00:00:31.218Z,5.20
2019-01-17T00:03:17.878Z,5.20
2019-01-17T00:06:04.387Z,5.20
2019-01-17T00:08:32.853Z,5.30
2019-01-17T00:11:16.444Z,5.10
2019-01-17T00:13:54.079Z,5.20
2019-01-17T00:16:24.346Z,5.10
2019-01-17T00:18:56.069Z,5.10
2019-01-17T00:21:33.673Z,5.20
2019-01-17T00:24:17.200Z,5.20
2019-01-17T00:26:45.919Z,5.20
2019-01-17T00:29:31.301Z,5.20
2019-01-17T00:32:16.187Z,5.30
2019-01-17T00:35:01.227Z,5.20
2019-01-17T00:37:32.409Z,5.20
2019-01-17T00:40:16.026Z,5.10
2019-01-17T00:42:44.488Z,5.10
2019-01-17T00:45:22.080Z,5.00
2019-01-17T00:48:05.905Z,4.90
2019-01-17T00:50:43.456Z,5.00
2019-01-17T00:53:14.590Z,5.00
2019-01-17T00:55:45.799Z,4.90
2019-01-17T00:58:30.906Z,5.00
2019-01-17T01:00:59.670Z,4.90
2019-01-17T01:03:44.609Z,4.90
2019-01-17T01:06:19.125Z,4.90
2019-01-17T01:08:56.582Z,4.80
2019-01-17T01:11:31.071Z,4.90
2019-01-17T01:14:02.524Z,4.90
2019-01-17T01:16:37.816Z,4.90
2019-01-17T01:19:11.807Z,5.00
2019-01-17T01:21:56.707Z,4.80
2019-01-17T01:24:34.179Z,4.90
2019-01-17T01:27:05.297Z,4.90
2019-01-17T01:29:39.768Z,4.80
2019-01-17T01:32:11.293Z,4.90
2019-01-17T01:34:39.725Z,4.90
2019-01-17T01:37:19.984Z,4.90
2019-01-17T01:39:48.410Z,4.80
2019-01-17T01:42:19.668Z,4.90
2019-01-17T01:44:48.093Z,4.80
2019-01-17T01:47:19.312Z,4.80
2019-01-17T01:49:50.496Z,4.90
2019-01-17T01:52:28.246Z,4.90
2019-01-17T01:54:54.672Z,4.80
2019-01-17T01:57:21.160Z,4.70
2019-01-17T01:59:47.684Z,4.70
2019-01-17T02:02:14.256Z,4.70
2019-01-17T02:04:40.778Z,4.80
2019-01-17T02:07:07.324Z,4.80
2019-01-17T02:09:33.758Z,4.80
2019-01-17T02:12:00.313Z,4.80
2019-01-17T02:14:27.400Z,4.60
2019-01-17T02:16:53.888Z,4.60
2019-01-17T02:19:20.430Z,4.70
2019-01-17T02:21:46.893Z,4.80
2019-01-17T02:24:13.424Z,4.80
2019-01-17T02:26:39.984Z,4.80
2019-01-17T02:29:06.506Z,4.80
2019-01-17T02:31:33.046Z,4.80
2019-01-17T02:33:59.565Z,4.70
2019-01-17T02:36:26.125Z,4.70
2019-01-17T02:38:52.643Z,4.70
2019-01-17T02:41:19.169Z,4.70
2019-01-17T02:43:45.732Z,4.70
2019-01-17T02:46:12.261Z,4.70
2019-01-17T02:48:38.801Z,4.80
2019-01-17T02:51:05.313Z,4.90
2019-01-17T02:53:31.976Z,4.80
2019-01-17T02:55:58.478Z,4.80
2019-01-17T02:58:25.132Z,4.80
2019-01-17T03:00:51.657Z,4.80
2019-01-17T03:03:19.914Z,4.80
2019-01-17T03:05:46.536Z,4.80
2019-01-17T03:08:13.077Z,4.80
2019-01-17T03:10:39.704Z,4.80
2019-01-17T03:13:06.457Z,4.80
2019-01-17T03:15:32.980Z,4.90
2019-01-17T03:17:59.534Z,4.80
2019-01-17T03:20:26.189Z,4.80
2019-01-17T03:22:52.749Z,4.90
2019-01-17T03:25:19.325Z,4.90
2019-01-17T03:27:45.991Z,4.90
2019-01-17T03:30:14.919Z,4.90
2019-01-17T03:32:41.583Z,4.90
2019-01-17T03:35:09.026Z,4.90
2019-01-17T03:37:35.564Z,4.90
2019-01-17T03:40:05.901Z,5.00
2019-01-17T03:42:32.451Z,5.00
2019-01-17T03:44:59.076Z,4.90
2019-01-17T03:47:25.636Z,4.90
2019-01-17T03:49:52.294Z,4.80
2019-01-17T03:52:18.859Z,4.70
2019-01-17T03:54:50.100Z,4.80
2019-01-17T03:57:13.795Z,4.90
2019-01-17T03:59:41.444Z,4.90
2019-01-17T04:02:08.864Z,5.00
2019-01-17T04:04:35.512Z,4.90
2019-01-17T04:07:02.035Z,4.90
2019-01-17T04:09:29.188Z,4.90
2019-01-17T04:11:55.725Z,4.80
2019-01-17T04:14:22.375Z,4.90
2019-01-17T04:16:49.005Z,4.80
2019-01-17T04:19:16.353Z,4.90
2019-01-17T04:21:43.729Z,4.80
2019-01-17T04:24:10.373Z,4.90
2019-01-17T04:26:37.719Z,4.90
2019-01-17T04:29:04.313Z,4.90
2019-01-17T04:31:30.951Z,4.90
2019-01-17T04:33:57.601Z,4.90
2019-01-17T04:36:24.226Z,4.80
2019-01-17T04:38:50.887Z,4.80
2019-01-17T04:41:17.422Z,4.90
2019-01-17T04:43:43.978Z,4.90
2019-01-17T04:46:10.597Z,4.80
2019-01-17T04:48:37.110Z,4.80
2019-01-17T04:51:03.971Z,4.80
2019-01-17T04:53:30.737Z,4.80
2019-01-17T04:55:57.354Z,4.70
2019-01-17T04:58:23.906Z,4.70
2019-01-17T05:00:50.525Z,4.60
2019-01-17T05:03:17.075Z,4.70
2019-01-17T05:05:43.664Z,4.80
2019-01-17T05:08:10.518Z,4.80
2019-01-17T05:10:37.158Z,4.80
2019-01-17T05:13:03.782Z,4.70
2019-01-17T05:15:30.434Z,4.80
2019-01-17T05:17:56.970Z,4.80
2019-01-17T05:20:23.653Z,4.80
2019-01-17T05:22:50.282Z,4.80
2019-01-17T05:25:16.855Z,4.80
2019-01-17T05:27:45.085Z,4.80
2019-01-17T05:30:14.240Z,4.80
2019-01-17T05:32:42.365Z,4.90
2019-01-17T05:35:09.529Z,4.80
2019-01-17T05:37:36.040Z,4.70
2019-01-17T05:40:06.202Z,4.70
2019-01-17T05:42:32.834Z,4.80
2019-01-17T05:44:59.393Z,4.80
2019-01-17T05:47:25.924Z,4.70
2019-01-17T05:49:52.569Z,4.90
2019-01-17T05:52:19.186Z,4.80
2019-01-17T05:54:45.895Z,4.80
2019-01-17T05:57:12.581Z,4.90
2019-01-17T05:59:39.122Z,4.70
2019-01-17T06:02:05.749Z,4.80
2019-01-17T06:04:32.395Z,4.90
2019-01-17T06:06:59.028Z,4.80
2019-01-17T06:09:31.950Z,4.80
2019-01-17T06:11:58.912Z,4.80
2019-01-17T06:14:25.429Z,4.80
2019-01-17T06:16:52.033Z,4.90
2019-01-17T06:19:18.647Z,4.90
2019-01-17T06:21:45.221Z,4.90
2019-01-17T06:24:11.847Z,4.80
2019-01-17T06:26:38.495Z,4.80
2019-01-17T06:29:05.121Z,4.70
2019-01-17T06:31:31.686Z,4.80
2019-01-17T06:33:58.283Z,4.90
2019-01-17T06:36:24.932Z,4.90
2019-01-17T06:38:51.561Z,4.70
2019-01-17T06:41:18.119Z,4.80
2019-01-17T06:43:44.743Z,4.80
2019-01-17T06:46:11.403Z,4.90
2019-01-17T06:48:37.966Z,4.90
2019-01-17T06:51:04.579Z,4.90
2019-01-17T06:53:31.121Z,5.00
2019-01-17T06:55:57.680Z,5.00
2019-01-17T06:58:24.259Z,4.90
2019-01-17T07:00:50.915Z,5.00
2019-01-17T07:03:17.736Z,5.00
2019-01-17T07:05:44.526Z,5.00
2019-01-17T07:08:11.055Z,5.00
2019-01-17T07:10:37.608Z,5.00
2019-01-17T07:13:04.135Z,4.90
2019-01-17T07:15:30.812Z,5.00
2019-01-17T07:17:57.327Z,5.00
2019-01-17T07:20:23.999Z,5.00
2019-01-17T07:22:50.616Z,5.00
2019-01-17T07:25:22.441Z,4.90
2019-01-17T07:27:49.066Z,5.00
2019-01-17T07:30:18.794Z,5.00
2019-01-17T07:32:45.457Z,5.00
2019-01-17T07:35:12.500Z,5.00
2019-01-17T07:37:40.757Z,4.90
2019-01-17T07:40:09.643Z,5.00
2019-01-17T07:42:36.293Z,5.00
2019-01-17T07:45:06.754Z,4.90
2019-01-17T07:47:34.194Z,4.80
2019-01-17T07:50:01.422Z,4.90
2019-01-17T07:52:30.361Z,4.90
2019-01-17T07:54:57.089Z,5.00
2019-01-17T07:57:23.852Z,4.90
2019-01-17T07:59:50.580Z,5.00
2019-01-17T08:02:17.328Z,5.00
2019-01-17T08:04:44.049Z,5.00
2019-01-17T08:07:10.809Z,4.90
2019-01-17T08:09:37.442Z,4.90
2019-01-17T08:12:05.124Z,4.90
2019-01-17T08:14:32.057Z,4.80
2019-01-17T08:16:58.808Z,4.80
2019-01-17T08:19:25.611Z,4.90
2019-01-17T08:21:52.564Z,4.90
2019-01-17T08:24:19.294Z,4.80
2019-01-17T08:26:46.054Z,4.80
2019-01-17T08:29:12.777Z,4.80
2019-01-17T08:31:39.536Z,4.80
2019-01-17T08:34:06.259Z,4.70
2019-01-17T08:36:33.018Z,4.70
2019-01-17T08:38:59.646Z,4.70
2019-01-17T08:41:26.424Z,4.80
2019-01-17T08:43:53.044Z,4.90
2019-01-17T08:46:20.101Z,4.80
2019-01-17T08:48:46.765Z,4.80
2019-01-17T08:51:13.395Z,4.80
2019-01-17T08:53:40.740Z,4.80
2019-01-17T08:56:07.360Z,4.80
2019-01-17T08:58:34.165Z,4.80
2019-01-17T09:01:00.737Z,4.80
2019-01-17T09:03:27.530Z,4.90
2019-01-17T09:05:54.156Z,4.90
2019-01-17T09:08:20.897Z,5.00
2019-01-17T09:10:47.650Z,4.90
2019-01-17T09:13:14.293Z,4.80
2019-01-17T09:15:41.029Z,4.90
2019-01-17T09:18:09.384Z,4.90
2019-01-17T09:20:35.909Z,4.90
2019-01-17T09:23:02.760Z,4.90
2019-01-17T09:25:29.301Z,4.90
2019-01-17T09:27:55.957Z,5.00
2019-01-17T09:30:22.582Z,5.10
2019-01-17T09:32:49.138Z,5.10
2019-01-17T09:35:16.771Z,5.00
2019-01-17T09:37:43.798Z,5.00
2019-01-17T09:40:13.723Z,5.00
2019-01-17T09:42:42.400Z,5.10
2019-01-17T09:45:09.432Z,5.20
2019-01-17T09:47:36.548Z,5.10
2019-01-17T09:50:09.877Z,5.10
2019-01-17T09:52:36.636Z,5.10
2019-01-17T09:55:04.133Z,5.20
2019-01-17T09:57:30.692Z,5.30
2019-01-17T09:59:57.214Z,5.30
2019-01-17T10:02:24.822Z,5.20
2019-01-17T10:04:51.537Z,5.30
2019-01-17T10:07:18.269Z,5.40
2019-01-17T10:09:44.916Z,5.40
2019-01-17T10:12:11.546Z,5.30
2019-01-17T10:14:38.192Z,5.20
2019-01-17T10:17:08.232Z,5.20
2019-01-17T10:19:41.665Z,5.10
2019-01-17T10:22:14.725Z,5.10
2019-01-17T10:24:59.825Z,5.10
2019-01-17T10:27:45.246Z,5.10
2019-01-17T10:30:35.661Z,5.20
2019-01-17T10:33:15.469Z,5.20
2019-01-17T10:35:57.496Z,5.20
2019-01-17T10:38:45.909Z,5.40
2019-01-17T10:41:21.531Z,5.30
2019-01-17T10:43:57.481Z,5.20
2019-01-17T10:46:36.811Z,5.20
2019-01-17T10:49:27.072Z,5.20
2019-01-17T10:52:19.738Z,5.30
2019-01-17T10:54:53.027Z,5.30
2019-01-17T10:57:23.455Z,5.30
2019-01-17T10:59:56.903Z,5.30
2019-01-17T11:02:42.586Z,5.30
2019-01-17T11:05:31.319Z,5.30
2019-01-17T11:08:21.279Z,5.40
2019-01-17T11:11:06.951Z,5.40
2019-01-17T11:13:38.019Z,5.50
2019-01-17T11:16:24.797Z,5.40
2019-01-17T11:19:29.164Z,5.40
2019-01-17T11:22:16.413Z,5.60
2019-01-17T11:25:03.462Z,5.50
2019-01-17T11:27:45.628Z,5.40
2019-01-17T11:30:49.612Z,5.50
2019-01-17T11:33:49.154Z,5.40
2019-01-17T11:36:34.373Z,5.50
2019-01-17T11:39:13.824Z,5.50
2019-01-17T11:41:55.936Z,5.50
2019-01-17T11:44:55.442Z,5.60
2019-01-17T11:47:35.216Z,5.60
2019-01-17T11:50:18.019Z,5.60
2019-01-17T11:53:05.932Z,5.60
2019-01-17T11:55:39.498Z,5.80
2019-01-17T11:58:15.703Z,5.70
2019-01-17T12:01:14.551Z,5.60
2019-01-17T12:04:01.629Z,5.70
2019-01-17T12:06:28.156Z,5.70
2019-01-17T12:08:54.678Z,5.70
2019-01-17T12:11:21.328Z,5.70
2019-01-17T12:13:47.961Z,5.60
2019-01-17T12:16:15.313Z,5.60
2019-01-17T12:18:43.246Z,5.70
2019-01-17T12:21:10.000Z,5.70
2019-01-17T12:23:36.416Z,5.80
2019-01-17T12:26:03.282Z,5.80
2019-01-17T12:28:29.834Z,5.70
2019-01-17T12:30:56.573Z,5.70
2019-01-17T12:33:23.198Z,5.80
2019-01-17T12:35:49.861Z,5.90
2019-01-17T12:38:16.602Z,6.00
2019-01-17T12:40:43.150Z,6.10
2019-01-17T12:43:09.768Z,6.00
2019-01-17T12:45:36.520Z,6.00
2019-01-17T12:48:03.257Z,5.90
2019-01-17T12:50:30.313Z,6.00
2019-01-17T12:52:56.933Z,6.10
2019-01-17T12:55:23.493Z,6.10
2019-01-17T12:57:50.115Z,6.10
2019-01-17T13:00:17.992Z,5.90
2019-01-17T13:02:44.606Z,6.00
2019-01-17T13:05:11.372Z,6.00
2019-01-17T13:07:37.896Z,6.00
2019-01-17T13:10:08.256Z,6.00
2019-01-17T13:12:34.885Z,5.90
2019-01-17T13:15:02.804Z,6.00
2019-01-17T13:17:29.284Z,5.90
2019-01-17T13:19:55.928Z,5.90
2019-01-17T13:22:22.686Z,6.00
2019-01-17T13:24:50.613Z,6.10
2019-01-17T13:27:17.269Z,6.20
2019-01-17T13:29:44.794Z,6.20
2019-01-17T13:32:11.444Z,6.20
2019-01-17T13:34:38.067Z,6.30
2019-01-17T13:37:04.625Z,6.30
2019-01-17T13:39:31.244Z,6.50
2019-01-17T13:41:58.998Z,6.80
2019-01-17T13:44:25.629Z,7.00
2019-01-17T13:46:52.191Z,7.00
2019-01-17T13:49:18.816Z,7.00
2019-01-17T13:51:45.518Z,6.80
2019-01-17T13:54:12.153Z,6.50
2019-01-17T13:56:39.108Z,6.30
2019-01-17T13:59:05.829Z,6.10
2019-01-17T14:01:32.845Z,6.00
2019-01-17T14:03:59.574Z,5.80
2019-01-17T14:06:26.242Z,5.70
2019-01-17T14:08:52.853Z,5.70
2019-01-17T14:11:19.620Z,5.90
2019-01-17T14:13:46.938Z,5.80
2019-01-17T14:16:14.190Z,5.70
2019-01-17T14:18:41.522Z,5.90
2019-01-17T14:21:08.280Z,5.90
2019-01-17T14:23:34.917Z,5.70
2019-01-17T14:26:04.213Z,5.60
2019-01-17T14:28:30.824Z,5.50
2019-01-17T14:30:57.914Z,5.50
2019-01-17T14:33:24.552Z,5.50
2019-01-17T14:35:51.620Z,5.40
2019-01-17T14:38:18.286Z,5.50
2019-01-17T14:40:46.515Z,5.50
2019-01-17T14:43:13.192Z,5.40
2019-01-17T14:45:40.813Z,5.40
2019-01-17T14:48:07.493Z,5.30
2019-01-17T14:50:34.837Z,5.30
2019-01-17T14:53:01.571Z,5.20
2019-01-17T14:55:28.498Z,5.20
2019-01-17T14:57:55.426Z,5.00
2019-01-17T15:00:27.849Z,4.90
2019-01-17T15:02:56.116Z,4.80
2019-01-17T15:05:22.947Z,4.80
2019-01-17T15:07:49.813Z,5.00
2019-01-17T15:10:20.098Z,5.00
2019-01-17T15:12:46.621Z,4.90
2019-01-17T15:15:13.468Z,4.80
2019-01-17T15:17:41.709Z,4.60
2019-01-17T15:20:15.336Z,4.70
2019-01-17T15:22:42.992Z,4.80
2019-01-17T15:25:10.543Z,4.70
2019-01-17T15:27:37.607Z,4.70
2019-01-17T15:30:08.040Z,4.60
2019-01-17T15:32:34.613Z,4.60
2019-01-17T15:35:01.280Z,4.40
2019-01-17T15:37:27.821Z,4.50
2019-01-17T15:39:54.396Z,4.60
2019-01-17T15:42:20.983Z,4.50
2019-01-17T15:44:47.672Z,4.50
2019-01-17T15:47:14.196Z,4.50
2019-01-17T15:49:40.774Z,4.40
2019-01-17T15:52:07.403Z,4.40
2019-01-17T15:54:34.076Z,4.40
2019-01-17T15:57:00.645Z,4.30
2019-01-17T15:59:27.264Z,4.40
2019-01-17T16:01:53.785Z,4.40
2019-01-17T16:04:20.351Z,4.30
2019-01-17T16:06:46.886Z,4.40
2019-01-17T16:09:13.467Z,4.30
2019-01-17T16:11:39.997Z,4.20
2019-01-17T16:14:06.576Z,4.20
2019-01-17T16:16:33.092Z,4.20
2019-01-17T16:18:59.638Z,4.20
2019-01-17T16:21:27.033Z,4.30
2019-01-17T16:23:53.656Z,4.20
2019-01-17T16:26:20.691Z,4.10
2019-01-17T16:28:47.249Z,4.00
2019-01-17T16:31:13.781Z,4.10
2019-01-17T16:33:40.344Z,4.20
2019-01-17T16:36:06.922Z,4.20
2019-01-17T16:38:33.506Z,4.10
2019-01-17T16:41:00.465Z,4.00
2019-01-17T16:43:27.485Z,4.00
2019-01-17T16:45:54.163Z,4.00
2019-01-17T16:48:21.792Z,3.90
2019-01-17T16:50:48.470Z,3.70
2019-01-17T16:53:15.227Z,3.70
2019-01-17T16:55:41.802Z,3.70
2019-01-17T16:58:08.753Z,3.90
2019-01-17T17:00:37.806Z,3.90
2019-01-17T17:03:04.319Z,3.70
2019-01-17T17:05:30.982Z,3.70
2019-01-17T17:07:57.560Z,3.60
2019-01-17T17:10:24.380Z,3.80
2019-01-17T17:12:50.892Z,3.80
2019-01-17T17:15:17.665Z,3.80
2019-01-17T17:17:44.345Z,3.90
2019-01-17T17:20:19.651Z,3.90
2019-01-17T17:22:46.524Z,3.90
2019-01-17T17:25:13.249Z,4.00
2019-01-17T17:27:40.023Z,4.00
2019-01-17T17:30:10.220Z,4.00
2019-01-17T17:32:36.720Z,4.00
2019-01-17T17:35:04.494Z,4.10
2019-01-17T17:37:31.141Z,4.10
2019-01-17T17:39:57.792Z,4.00
2019-01-17T17:42:24.641Z,3.90
2019-01-17T17:44:51.330Z,3.90
2019-01-17T17:47:17.955Z,3.80
2019-01-17T17:49:44.612Z,4.00
2019-01-17T17:52:12.409Z,3.90
2019-01-17T17:54:39.609Z,3.90
2019-01-17T17:57:07.763Z,4.00
2019-01-17T17:59:34.784Z,3.80
2019-01-17T18:02:02.120Z,3.90
2019-01-17T18:04:28.790Z,3.90
2019-01-17T18:06:55.590Z,3.90
2019-01-17T18:09:22.215Z,3.80
2019-01-17T18:11:48.841Z,3.90
2019-01-17T18:14:15.508Z,3.80
2019-01-17T18:16:42.090Z,4.00
2019-01-17T18:19:08.601Z,3.90
2019-01-17T18:21:35.269Z,3.80
2019-01-17T18:24:01.892Z,3.90
2019-01-17T18:26:28.993Z,3.80
2019-01-17T18:28:55.625Z,3.80
2019-01-17T18:31:22.284Z,3.70
2019-01-17T18:33:49.113Z,3.80
2019-01-17T18:36:15.786Z,3.90
2019-01-17T18:38:42.635Z,3.80
2019-01-17T18:41:10.047Z,3.80
2019-01-17T18:43:36.617Z,3.80
2019-01-17T18:46:03.443Z,3.80
2019-01-17T18:48:30.229Z,3.80
2019-01-17T18:50:56.765Z,3.70
2019-01-17T18:53:23.443Z,3.60
2019-01-17T18:55:50.092Z,3.70
2019-01-17T18:58:16.773Z,3.80
2019-01-17T19:00:43.404Z,3.70
2019-01-17T19:03:10.091Z,3.70
2019-01-17T19:05:36.736Z,3.70
2019-01-17T19:08:03.759Z,3.80
2019-01-17T19:10:30.537Z,3.80
2019-01-17T19:12:57.056Z,3.80
2019-01-17T19:15:25.839Z,3.80
2019-01-17T19:17:52.365Z,3.70
2019-01-17T19:20:19.842Z,3.60
2019-01-17T19:22:47.917Z,3.70
2019-01-17T19:25:14.739Z,3.80
2019-01-17T19:27:41.364Z,3.80
2019-01-17T19:30:11.972Z,3.90
2019-01-17T19:32:38.781Z,3.90
2019-01-17T19:35:07.769Z,3.90
2019-01-17T19:37:34.369Z,4.00
2019-01-17T19:40:01.348Z,3.80
2019-01-17T19:42:27.888Z,3.50
2019-01-17T19:44:54.833Z,3.30
2019-01-17T19:47:21.458Z,3.10
2019-01-17T19:49:48.009Z,3.00
2019-01-17T19:52:15.251Z,3.10
2019-01-17T19:54:41.840Z,3.00
2019-01-17T19:57:08.565Z,2.80
2019-01-17T19:59:35.186Z,2.90
2019-01-17T20:02:03.075Z,2.70
2019-01-17T20:04:29.814Z,2.60
2019-01-17T20:06:56.589Z,2.70
2019-01-17T20:09:23.108Z,2.70
2019-01-17T20:11:49.879Z,2.80
2019-01-17T20:14:16.391Z,2.70
2019-01-17T20:16:43.064Z,2.60
2019-01-17T20:19:09.600Z,2.30
2019-01-17T20:21:36.177Z,2.10
2019-01-17T20:24:03.304Z,2.10
2019-01-17T20:26:29.895Z,2.20
2019-01-17T20:28:56.588Z,2.20
2019-01-17T20:31:23.289Z,2.20
2019-01-17T20:33:50.414Z,2.20
2019-01-17T20:36:17.308Z,2.00
2019-01-17T20:38:44.090Z,2.10
2019-01-17T20:41:10.781Z,2.00
2019-01-17T20:43:37.316Z,2.00
2019-01-17T20:46:03.945Z,1.80
2019-01-17T20:48:30.573Z,1.60
2019-01-17T20:50:57.137Z,1.70
2019-01-17T20:53:23.961Z,1.70
2019-01-17T20:55:50.543Z,1.60
2019-01-17T20:58:17.361Z,1.50
2019-01-17T21:00:54.719Z,1.50
2019-01-17T21:03:21.565Z,1.50
2019-01-17T21:05:48.189Z,1.60
2019-01-17T21:08:14.901Z,1.60
2019-01-17T21:10:42.603Z,1.50
2019-01-17T21:13:09.208Z,1.60
2019-01-17T21:15:36.128Z,1.40
2019-01-17T21:18:03.212Z,1.30
2019-01-17T21:20:29.973Z,1.00
2019-01-17T21:22:56.499Z,0.70
2019-01-17T21:25:23.147Z,0.40
2019-01-17T21:27:49.812Z,0.30
2019-01-17T21:30:24.774Z,0.20
2019-01-17T21:32:51.457Z,0.30
2019-01-17T21:35:18.084Z,0.20
2019-01-17T21:37:44.692Z,0.10
2019-01-17T21:40:18.026Z,0.20
2019-01-17T21:42:44.601Z,0.30
2019-01-17T21:45:13.771Z,0.30
2019-01-17T21:47:40.500Z,0.30
2019-01-17T21:50:10.731Z,0.30
2019-01-17T21:52:37.261Z,0.20
2019-01-17T21:55:06.864Z,0.10
2019-01-17T21:57:33.545Z,0.20
2019-01-17T22:00:00.205Z,0.30
2019-01-17T22:02:26.937Z,0.30
2019-01-17T22:04:53.736Z,0.30
2019-01-17T22:07:20.486Z,0.40
2019-01-17T22:09:47.058Z,0.50
2019-01-17T22:12:13.680Z,0.60
2019-01-17T22:14:40.766Z,0.60
2019-01-17T22:17:07.285Z,0.70
2019-01-17T22:19:33.857Z,0.80
2019-01-17T22:22:00.436Z,0.80
2019-01-17T22:24:27.038Z,0.90
2019-01-17T22:26:53.656Z,1.00
2019-01-17T22:29:20.429Z,0.80
2019-01-17T22:31:47.059Z,0.80
2019-01-17T22:34:13.674Z,0.70
2019-01-17T22:36:40.244Z,0.70
2019-01-17T22:39:06.661Z,0.70
2019-01-17T22:41:33.333Z,0.70
2019-01-17T22:44:00.066Z,0.70
2019-01-17T22:46:26.733Z,0.80
2019-01-17T22:48:53.461Z,0.80
2019-01-17T22:51:19.982Z,0.70
2019-01-17T22:53:46.823Z,0.60
2019-01-17T22:56:13.451Z,0.80
2019-01-17T22:58:40.130Z,0.90
2019-01-17T23:01:10.483Z,0.70
2019-01-17T23:03:37.080Z,0.70
2019-01-17T23:06:03.703Z,0.70
2019-01-17T23:08:33.982Z,0.90
2019-01-17T23:11:00.439Z,0.80
2019-01-17T23:13:27.529Z,1.00
2019-01-17T23:15:54.515Z,0.80
2019-01-17T23:18:21.187Z,0.90
2019-01-17T23:20:47.815Z,0.80
2019-01-17T23:23:14.725Z,0.90
2019-01-17T23:25:41.363Z,0.90
2019-01-17T23:28:07.981Z,0.70
2019-01-17T23:30:34.747Z,0.70
2019-01-17T23:33:01.373Z,0.80
2019-01-17T23:35:28.133Z,0.90
2019-01-17T23:37:54.760Z,0.80
2019-01-17T23:40:21.459Z,0.60
2019-01-17T23:42:48.191Z,0.80
2019-01-17T23:45:14.877Z,0.80
2019-01-17T23:47:41.413Z,0.70
2019-01-17T23:50:10.600Z,0.80
2019-01-17T23:52:37.268Z,0.80
2019-01-17T23:55:06.001Z,0.70
2019-01-17T23:57:33.783Z,0.70
